Time;durP1;ratioP1;P1;durP2;ratioP2;P2;SDS_P1;SDS_P2;PMS_P1;PMS_P2;Temp;Humidity;BMP_temperature;BMP_pressure;BME280_temperature;BME280_humidity;BME280_pressure;Samples;Min_cycle;Max_cycle;Signal;HPM_P1;HPM_P2
2022/09/21 00:00:29;;;;;;;2.10;1.90;;;10.00;97.70;;;;;;5041572;28;20550;-69
2022/09/21 00:02:56;;;;;;;5.13;1.88;;;10.00;97.60;;;;;;5039724;28;20078;-69
2022/09/21 00:05:23;;;;;;;3.28;2.28;;;10.00;97.70;;;;;;5038701;28;20037;-69
2022/09/21 00:07:49;;;;;;;2.80;1.60;;;10.00;97.70;;;;;;5036765;28;20033;-69
2022/09/21 00:10:15;;;;;;;4.35;1.92;;;10.00;97.60;;;;;;5035232;28;20029;-69
2022/09/21 00:12:41;;;;;;;2.63;2.15;;;10.00;97.60;;;;;;5034394;28;20025;-69
2022/09/21 00:15:09;;;;;;;3.03;1.95;;;10.00;97.60;;;;;;5040026;28;20489;-69
2022/09/21 00:17:36;;;;;;;2.50;2.03;;;9.90;97.50;;;;;;5042196;28;20039;-69
2022/09/21 00:20:04;;;;;;;2.70;2.17;;;9.90;97.50;;;;;;5039265;28;20408;-67
2022/09/21 00:22:31;;;;;;;2.17;1.70;;;9.90;97.50;;;;;;5039396;28;20039;-69
2022/09/21 00:24:57;;;;;;;1.95;1.70;;;9.90;97.40;;;;;;5036031;28;20025;-68
2022/09/21 00:27:28;;;;;;;1.98;1.67;;;9.90;97.40;;;;;;5037073;28;20033;-69
2022/09/21 00:30:02;;;;;;;1.83;1.60;;;9.90;97.40;;;;;;5033400;28;20106;-69
2022/09/21 00:32:32;;;;;;;2.28;1.58;;;9.80;97.40;;;;;;5035609;28;20029;-69
2022/09/21 00:34:59;;;;;;;3.28;2.92;;;9.80;97.70;;;;;;5038397;28;20048;-69
2022/09/21 00:37:25;;;;;;;2.67;2.10;;;9.80;97.40;;;;;;5040762;28;20053;-69
2022/09/21 00:39:51;;;;;;;2.97;1.90;;;9.80;97.40;;;;;;5039013;28;20037;-69
2022/09/21 00:42:26;;;;;;;1.95;1.77;;;9.80;97.50;;;;;;5037046;28;20045;-69
2022/09/21 00:44:52;;;;;;;2.63;1.85;;;9.80;97.40;;;;;;5035459;28;20031;-70
2022/09/21 00:47:30;;;;;;;1.70;1.50;;;9.70;97.40;;;;;;5035531;28;20216;-69
2022/09/21 00:49:58;;;;;;;1.90;1.65;;;9.70;97.40;;;;;;5032104;28;20033;-69
2022/09/21 00:52:27;;;;;;;1.83;1.52;;;9.70;97.40;;;;;;5037792;28;20037;-69
2022/09/21 00:55:14;;;;;;;1.75;1.60;;;9.70;97.40;;;;;;5037576;28;20631;-67
2022/09/21 00:57:42;;;;;;;2.30;1.75;;;9.70;97.50;;;;;;5039282;28;20072;-68
2022/09/21 01:00:09;;;;;;;2.00;1.80;;;9.70;97.40;;;;;;5036527;28;20045;-68
2022/09/21 01:02:36;;;;;;;2.95;1.83;;;9.60;97.40;;;;;;5038306;28;20032;-67
2022/09/21 01:05:04;;;;;;;2.40;1.95;;;9.60;97.40;;;;;;5033324;28;20124;-67
2022/09/21 01:07:33;;;;;;;1.63;1.48;;;9.60;97.30;;;;;;5035611;28;20062;-67
2022/09/21 01:10:04;;;;;;;3.03;1.88;;;9.60;97.20;;;;;;5031343;28;20413;-67
2022/09/21 01:12:50;;;;;;;2.97;2.08;;;9.60;97.20;;;;;;5038132;28;20037;-68
2022/09/21 01:15:36;;;;;;;1.98;1.67;;;9.60;97.10;;;;;;5040615;28;20087;-67
2022/09/21 01:18:12;;;;;;;3.13;1.47;;;9.50;97.10;;;;;;5036917;28;20401;-68
2022/09/21 01:20:56;;;;;;;3.05;1.92;;;9.60;97.20;;;;;;5041168;28;20059;-68
2022/09/21 01:23:44;;;;;;;4.25;1.95;;;9.50;97.30;;;;;;5039769;28;20052;-68
2022/09/21 01:26:31;;;;;;;3.30;1.75;;;9.50;97.30;;;;;;5037184;28;20034;-68
2022/09/21 01:29:16;;;;;;;3.92;1.60;;;9.50;97.40;;;;;;5034992;28;20064;-68
2022/09/21 01:31:49;;;;;;;9.18;3.05;;;9.50;97.50;;;;;;5043558;28;20039;-67
2022/09/21 01:34:28;;;;;;;3.38;2.17;;;9.50;97.60;;;;;;5042709;28;20069;-67
2022/09/21 01:36:57;;;;;;;2.25;1.50;;;9.50;97.60;;;;;;5040636;28;20125;-68
2022/09/21 01:39:25;;;;;;;2.97;1.98;;;9.50;97.50;;;;;;5041212;28;20067;-67
2022/09/21 01:41:53;;;;;;;3.30;1.65;;;9.50;97.50;;;;;;5038998;28;20052;-67
2022/09/21 01:44:23;;;;;;;2.03;1.83;;;9.50;97.40;;;;;;5038540;28;20557;-68
2022/09/21 01:46:50;;;;;;;1.73;1.63;;;9.50;97.40;;;;;;5032539;28;20029;-68
2022/09/21 01:49:28;;;;;;;3.92;1.80;;;9.50;97.50;;;;;;5040180;28;20552;-67
2022/09/21 01:52:01;;;;;;;1.98;1.58;;;9.40;97.50;;;;;;5040947;28;20044;-68
2022/09/21 01:54:38;;;;;;;2.17;1.83;;;9.50;97.50;;;;;;5039559;28;20214;-67
2022/09/21 01:57:33;;;;;;;1.73;1.63;;;9.40;97.50;;;;;;5039881;28;20127;-67
2022/09/21 02:00:00;;;;;;;2.38;1.77;;;9.40;97.40;;;;;;5039529;28;20357;-67
2022/09/21 02:02:57;;;;;;;3.53;1.83;;;9.40;97.50;;;;;;5038420;28;20528;-68
2022/09/21 02:05:25;;;;;;;1.90;1.70;;;9.40;97.50;;;;;;5037401;28;20044;-67
2022/09/21 02:07:52;;;;;;;2.13;1.70;;;9.40;97.60;;;;;;5040814;28;20067;-67
2022/09/21 02:10:29;;;;;;;3.60;2.08;;;9.40;97.60;;;;;;5043519;28;20076;-65
2022/09/21 02:13:00;;;;;;;2.67;1.83;;;9.40;97.70;;;;;;5038543;28;20044;-67
2022/09/21 02:15:37;;;;;;;3.60;1.60;;;9.40;97.60;;;;;;5039280;28;20040;-68
2022/09/21 02:18:28;;;;;;;1.50;1.33;;;9.40;97.60;;;;;;5036638;28;20493;-66
2022/09/21 02:20:57;;;;;;;2.58;1.98;;;9.40;97.70;;;;;;5036682;28;20571;-68
2022/09/21 02:23:42;;;;;;;3.60;1.50;;;9.40;97.70;;;;;;5035452;28;20029;-67
2022/09/21 02:26:23;;;;;;;4.45;1.80;;;9.40;97.70;;;;;;5037065;28;20516;-67
2022/09/21 02:29:10;;;;;;;3.65;1.38;;;9.40;97.70;;;;;;5042289;28;20024;-67
2022/09/21 02:31:58;;;;;;;1.50;1.23;;;9.40;97.10;;;;;;5038882;28;20033;-67
2022/09/21 02:34:50;;;;;;;3.05;1.50;;;9.20;96.80;;;;;;5039131;28;20049;-67
2022/09/21 02:37:36;;;;;;;3.85;1.90;;;9.20;97.10;;;;;;5037791;28;20409;-67
2022/09/21 02:40:29;;;;;;;2.28;1.67;;;9.10;97.20;;;;;;5034670;28;20034;-67
2022/09/21 02:43:00;;;;;;;3.10;1.85;;;9.10;97.30;;;;;;5035421;28;20039;-68
2022/09/21 02:45:31;;;;;;;2.20;1.73;;;9.20;97.40;;;;;;5037926;28;20029;-67
2022/09/21 02:48:11;;;;;;;1.77;1.42;;;9.10;97.40;;;;;;5038329;28;20061;-67
2022/09/21 02:50:50;;;;;;;2.38;1.73;;;9.10;97.50;;;;;;5036165;28;20033;-67
2022/09/21 02:53:22;;;;;;;2.03;1.83;;;9.10;97.50;;;;;;5038062;28;20041;-67
2022/09/21 02:55:50;;;;;;;1.67;1.55;;;9.10;97.40;;;;;;5037496;28;20040;-67
2022/09/21 02:58:19;;;;;;;1.45;1.33;;;9.10;97.30;;;;;;5035466;28;20508;-67
2022/09/21 03:00:45;;;;;;;1.33;1.23;;;9.10;97.30;;;;;;5034657;28;20555;-68
2022/09/21 03:03:18;;;;;;;2.92;1.50;;;9.10;97.30;;;;;;5033416;28;20060;-68
2022/09/21 03:05:47;;;;;;;3.20;1.40;;;9.10;97.50;;;;;;5041622;28;20098;-67
2022/09/21 03:08:13;;;;;;;2.65;1.58;;;9.10;97.20;;;;;;5040203;28;20155;-67
2022/09/21 03:10:39;;;;;;;3.30;1.63;;;9.00;97.00;;;;;;5040180;28;20696;-68
2022/09/21 03:13:08;;;;;;;1.75;1.50;;;8.90;96.60;;;;;;4996742;28;1186852;-68
2022/09/21 03:15:35;;;;;;;1.73;1.58;;;8.90;96.30;;;;;;5041138;28;20609;-67
2022/09/21 03:18:03;;;;;;;1.98;1.30;;;8.80;96.00;;;;;;5033284;28;20554;-67
2022/09/21 03:20:34;;;;;;;2.45;1.48;;;8.70;96.30;;;;;;5037252;28;20098;-67
2022/09/21 03:23:00;;;;;;;2.67;1.60;;;8.70;96.60;;;;;;5035960;28;20048;-67
2022/09/21 03:25:27;;;;;;;2.33;1.80;;;8.70;96.70;;;;;;5035749;28;20025;-67
2022/09/21 03:27:53;;;;;;;3.45;1.80;;;8.70;96.90;;;;;;5042312;28;20029;-68
2022/09/21 03:30:23;;;;;;;5.97;1.80;;;8.70;97.20;;;;;;5040759;28;20033;-67
2022/09/21 03:32:51;;;;;;;4.03;1.70;;;8.80;97.30;;;;;;5038487;28;20039;-68
2022/09/21 03:35:18;;;;;;;2.70;1.48;;;8.80;97.40;;;;;;5035870;28;20037;-68
2022/09/21 03:37:45;;;;;;;2.75;1.80;;;8.80;97.50;;;;;;5035469;28;20120;-67
2022/09/21 03:40:11;;;;;;;2.30;1.42;;;8.80;97.40;;;;;;5033457;28;20041;-67
2022/09/21 03:42:38;;;;;;;2.90;1.70;;;8.80;97.40;;;;;;5037850;28;20044;-67
2022/09/21 03:45:05;;;;;;;3.33;2.20;;;8.90;97.50;;;;;;5041926;28;20111;-67
2022/09/21 03:47:30;;;;;;;2.25;1.60;;;8.90;97.10;;;;;;5040796;28;20415;-67
2022/09/21 03:49:56;;;;;;;6.05;1.70;;;8.80;96.80;;;;;;5038164;28;20025;-67
2022/09/21 03:52:22;;;;;;;1.60;1.50;;;8.80;96.80;;;;;;5034642;28;20029;-68
2022/09/21 03:54:48;;;;;;;1.73;1.40;;;8.70;96.80;;;;;;5036267;28;20051;-67
2022/09/21 03:57:13;;;;;;;2.35;1.60;;;8.70;96.70;;;;;;5035185;28;20037;-67
2022/09/21 03:59:40;;;;;;;3.05;2.10;;;8.70;96.70;;;;;;5034645;28;20029;-67
2022/09/21 04:02:06;;;;;;;2.85;1.25;;;8.60;96.70;;;;;;5040993;28;20039;-68
2022/09/21 04:04:32;;;;;;;2.10;1.48;;;8.60;96.90;;;;;;5041411;28;20032;-67
2022/09/21 04:06:59;;;;;;;2.05;1.45;;;8.60;96.90;;;;;;5040038;28;20524;-67
2022/09/21 04:09:25;;;;;;;2.85;1.40;;;8.60;97.00;;;;;;5039302;28;20044;-67
2022/09/21 04:11:52;;;;;;;1.98;1.40;;;8.60;96.80;;;;;;5037074;28;20044;-67
2022/09/21 04:14:19;;;;;;;4.35;1.67;;;8.60;96.70;;;;;;5035692;28;20435;-67
2022/09/21 04:16:45;;;;;;;4.32;1.35;;;8.60;96.80;;;;;;5037816;28;20171;-67
2022/09/21 04:19:11;;;;;;;1.88;1.42;;;8.60;96.90;;;;;;5033311;28;20029;-67
2022/09/21 04:21:37;;;;;;;1.25;1.10;;;8.60;97.00;;;;;;5041877;28;20503;-67
2022/09/21 04:24:03;;;;;;;3.33;1.35;;;8.60;97.00;;;;;;5039686;28;20028;-67
2022/09/21 04:26:31;;;;;;;1.73;1.15;;;8.60;97.00;;;;;;5040154;28;20810;-67
2022/09/21 04:28:58;;;;;;;1.55;1.27;;;8.60;96.90;;;;;;5037348;28;20025;-67
2022/09/21 04:31:25;;;;;;;1.88;1.20;;;8.60;97.00;;;;;;5037422;28;20064;-67
2022/09/21 04:33:51;;;;;;;1.48;1.33;;;8.60;97.00;;;;;;5034544;28;20041;-68
2022/09/21 04:36:19;;;;;;;1.95;1.30;;;8.60;97.00;;;;;;5034576;28;20398;-68
2022/09/21 04:38:46;;;;;;;2.08;1.38;;;8.60;97.00;;;;;;5038917;28;20025;-67
2022/09/21 04:41:11;;;;;;;2.00;1.42;;;8.60;96.90;;;;;;5040969;28;20114;-67
2022/09/21 04:43:40;;;;;;;2.15;1.27;;;8.70;96.90;;;;;;5040125;28;20021;-70
2022/09/21 04:46:12;;;;;;;1.77;1.40;;;8.60;97.00;;;;;;5037152;28;20033;-67
2022/09/21 04:48:38;;;;;;;2.13;1.52;;;8.60;97.10;;;;;;5038379;28;20032;-68
2022/09/21 04:51:08;;;;;;;2.58;1.25;;;8.60;97.10;;;;;;5033911;28;20030;-68
2022/09/21 04:53:35;;;;;;;3.55;1.90;;;8.60;97.20;;;;;;5034947;28;20389;-67
2022/09/21 04:56:02;;;;;;;2.17;1.35;;;8.60;97.20;;;;;;5031489;28;20045;-68
2022/09/21 04:58:28;;;;;;;4.50;1.50;;;8.60;97.20;;;;;;5041758;28;20409;-68
2022/09/21 05:00:55;;;;;;;3.15;1.60;;;8.60;97.20;;;;;;5040514;28;20040;-68
2022/09/21 05:03:22;;;;;;;2.40;1.30;;;8.70;97.20;;;;;;5039315;28;20427;-68
2022/09/21 05:05:50;;;;;;;2.00;1.40;;;8.70;97.20;;;;;;5038153;28;20082;-68
2022/09/21 05:08:16;;;;;;;2.78;1.42;;;8.60;97.20;;;;;;5036083;28;20033;-68
2022/09/21 05:10:43;;;;;;;1.88;1.25;;;8.70;97.30;;;;;;5035800;28;20091;-68
2022/09/21 05:13:09;;;;;;;2.50;1.23;;;8.70;97.30;;;;;;5032590;28;20037;-68
2022/09/21 05:15:38;;;;;;;3.00;1.45;;;8.70;97.20;;;;;;5037083;28;20036;-68
2022/09/21 05:18:04;;;;;;;2.22;1.50;;;8.70;97.30;;;;;;5041467;28;20029;-68
2022/09/21 05:20:30;;;;;;;1.75;1.30;;;8.70;97.40;;;;;;5039813;28;20394;-68
2022/09/21 05:23:01;;;;;;;4.50;1.33;;;8.70;97.40;;;;;;5037994;28;20117;-68
2022/09/21 05:25:26;;;;;;;2.92;1.60;;;8.70;97.40;;;;;;5033223;28;20420;-68
2022/09/21 05:27:52;;;;;;;2.40;1.38;;;8.70;97.40;;;;;;5035312;28;20029;-68
2022/09/21 05:30:18;;;;;;;1.77;1.30;;;8.70;97.30;;;;;;5034835;28;20097;-68
2022/09/21 05:32:56;;;;;;;1.55;1.45;;;8.70;97.30;;;;;;5033062;28;20076;-68
2022/09/21 05:35:33;;;;;;;2.25;1.48;;;8.70;97.30;;;;;;5036628;28;20029;-68
2022/09/21 05:38:17;;;;;;;2.33;1.33;;;8.70;97.30;;;;;;5037247;28;20493;-68
2022/09/21 05:40:46;;;;;;;1.25;1.10;;;8.70;97.30;;;;;;5039046;28;20032;-68
2022/09/21 05:43:12;;;;;;;2.58;2.08;;;8.80;97.30;;;;;;5036186;28;20041;-68
2022/09/21 05:45:45;;;;;;;2.10;1.17;;;8.80;97.30;;;;;;5038886;28;20025;-68
2022/09/21 05:48:20;;;;;;;2.28;1.60;;;8.80;97.40;;;;;;5035474;28;20489;-68
2022/09/21 05:51:05;;;;;;;1.50;1.30;;;8.80;97.60;;;;;;5034874;28;20032;-67
2022/09/21 05:54:14;;;;;;;3.42;1.73;;;8.90;97.60;;;;;;5032580;28;20064;-68
2022/09/21 05:56:42;;;;;;;3.33;1.60;;;8.90;97.60;;;;;;5034968;28;20639;-68
2022/09/21 05:59:27;;;;;;;4.03;1.77;;;8.90;97.60;;;;;;5037878;28;20446;-68
2022/09/21 06:02:26;;;;;;;3.53;1.85;;;9.00;97.70;;;;;;5035741;28;20044;-68
2022/09/21 06:04:55;;;;;;;2.38;1.90;;;9.00;97.80;;;;;;5035283;28;20728;-68
2022/09/21 06:07:20;;;;;;;2.03;1.52;;;9.10;97.90;;;;;;5038410;28;20029;-67
2022/09/21 06:09:46;;;;;;;2.92;1.60;;;9.10;97.90;;;;;;5036720;28;20033;-68
2022/09/21 06:12:12;;;;;;;3.67;1.65;;;9.20;97.90;;;;;;5035544;28;20088;-68
2022/09/21 06:14:38;;;;;;;2.00;1.38;;;9.20;98.10;;;;;;5043557;28;20032;-68
2022/09/21 06:17:03;;;;;;;1.90;1.58;;;9.30;98.20;;;;;;5042955;28;20469;-68
2022/09/21 06:19:29;;;;;;;2.50;1.75;;;9.40;98.10;;;;;;5041942;28;20033;-68
2022/09/21 06:21:55;;;;;;;2.55;2.03;;;9.40;98.10;;;;;;5036428;28;20033;-68
2022/09/21 06:24:20;;;;;;;1.77;1.58;;;9.50;98.10;;;;;;5038363;28;20171;-68
2022/09/21 06:26:46;;;;;;;2.83;2.10;;;9.50;98.10;;;;;;5037067;28;20029;-68
2022/09/21 06:29:12;;;;;;;5.07;1.45;;;9.60;98.10;;;;;;5035320;28;20073;-68
2022/09/21 06:31:38;;;;;;;2.50;1.75;;;9.60;98.10;;;;;;5036248;28;20115;-68
2022/09/21 06:34:03;;;;;;;3.40;2.00;;;9.70;98.20;;;;;;5042002;28;20033;-68
2022/09/21 06:36:30;;;;;;;5.13;2.08;;;9.80;98.20;;;;;;5042320;28;20025;-68
2022/09/21 06:38:55;;;;;;;2.88;2.30;;;9.80;98.30;;;;;;5040309;28;20039;-68
2022/09/21 06:41:21;;;;;;;3.88;2.35;;;9.90;98.30;;;;;;5039488;28;20516;-68
2022/09/21 06:43:47;;;;;;;2.83;2.00;;;9.90;98.50;;;;;;5040347;28;20033;-68
2022/09/21 06:46:13;;;;;;;3.75;2.25;;;10.00;98.40;;;;;;5036277;28;20538;-68
2022/09/21 06:48:38;;;;;;;5.75;2.70;;;10.10;98.40;;;;;;5035897;28;20033;-68
2022/09/21 06:51:05;;;;;;;3.92;2.47;;;10.20;98.30;;;;;;5040584;28;20075;-68
2022/09/21 06:53:32;;;;;;;3.65;2.55;;;10.20;98.30;;;;;;5040957;28;20035;-68
2022/09/21 06:56:06;;;;;;;3.03;2.38;;;10.30;98.30;;;;;;5036858;28;20037;-68
2022/09/21 06:58:33;;;;;;;5.93;3.38;;;10.30;98.40;;;;;;5037187;28;20756;-68
2022/09/21 07:01:10;;;;;;;3.97;2.60;;;10.60;98.40;;;;;;5037014;28;20127;-68
2022/09/21 07:03:36;;;;;;;4.40;2.70;;;10.80;98.10;;;;;;5037408;28;20033;-68
2022/09/21 07:06:03;;;;;;;5.20;3.10;;;10.90;97.90;;;;;;5033691;28;20044;-68
2022/09/21 07:08:29;;;;;;;6.28;2.97;;;11.00;98.00;;;;;;5036488;28;20532;-68
2022/09/21 07:10:59;;;;;;;6.35;3.00;;;11.10;98.00;;;;;;5039757;28;20116;-68
2022/09/21 07:13:28;;;;;;;3.15;2.85;;;11.20;98.10;;;;;;5041683;28;20119;-67
2022/09/21 07:15:54;;;;;;;4.90;3.20;;;11.30;98.00;;;;;;5041395;28;20673;-67
2022/09/21 07:18:20;;;;;;;4.07;2.72;;;11.40;98.00;;;;;;5038420;28;20037;-67
2022/09/21 07:20:47;;;;;;;4.22;3.10;;;11.50;98.00;;;;;;5038472;28;20512;-67
2022/09/21 07:23:18;;;;;;;6.85;3.20;;;11.60;98.00;;;;;;5036155;28;20033;-67
2022/09/21 07:25:49;;;;;;;4.57;2.95;;;11.70;98.00;;;;;;5035131;28;20051;-67
2022/09/21 07:28:15;;;;;;;7.00;3.25;;;11.80;98.00;;;;;;5038351;28;20158;-67
2022/09/21 07:30:42;;;;;;;4.10;3.13;;;12.00;98.10;;;;;;5041100;28;20016;-68
2022/09/21 07:33:08;;;;;;;5.45;3.47;;;12.10;98.10;;;;;;5039607;28;20119;-68
2022/09/21 07:35:34;;;;;;;5.53;3.15;;;12.30;98.00;;;;;;5039616;28;20428;-66
2022/09/21 07:38:02;;;;;;;5.93;2.80;;;12.40;97.80;;;;;;5036842;28;20036;-67
2022/09/21 07:40:28;;;;;;;3.63;2.80;;;12.50;97.90;;;;;;5036125;28;20044;-67
2022/09/21 07:43:01;;;;;;;5.32;2.83;;;12.70;97.50;;;;;;5033398;28;20033;-67
2022/09/21 07:45:28;;;;;;;6.65;2.85;;;12.80;97.30;;;;;;5040842;28;20036;-66
2022/09/21 07:47:54;;;;;;;5.75;2.78;;;12.80;97.00;;;;;;5039279;28;20128;-67
2022/09/21 07:50:21;;;;;;;5.18;2.50;;;12.90;96.60;;;;;;5041936;28;20030;-67
2022/09/21 07:52:47;;;;;;;5.10;2.50;;;12.90;96.50;;;;;;5041682;28;20426;-67
2022/09/21 07:55:13;;;;;;;4.93;3.05;;;13.00;96.50;;;;;;5038105;28;20084;-67
2022/09/21 08:00:24;;;;;;;5.97;2.90;;;13.00;96.30;;;;;;5037704;28;20028;-67
2022/09/21 08:02:50;;;;;;;4.60;2.70;;;13.00;96.30;;;;;;5035208;28;20029;-67
2022/09/21 08:05:16;;;;;;;5.15;2.70;;;13.00;96.30;;;;;;5033988;28;20497;-67
2022/09/21 08:07:42;;;;;;;2.83;2.30;;;12.90;96.30;;;;;;5043220;28;20067;-67
2022/09/21 08:10:08;;;;;;;5.30;2.75;;;12.90;96.40;;;;;;5040508;28;20335;-66
2022/09/21 08:12:34;;;;;;;4.68;3.10;;;12.90;96.50;;;;;;5040416;28;20079;-67
2022/09/21 08:15:00;;;;;;;3.75;2.78;;;12.90;96.70;;;;;;5039051;28;20052;-67
2022/09/21 08:17:26;;;;;;;4.72;3.03;;;12.90;96.70;;;;;;5038365;28;20039;-67
2022/09/21 08:19:53;;;;;;;3.35;2.70;;;12.90;96.80;;;;;;5035218;28;20091;-67
2022/09/21 08:22:23;;;;;;;6.20;3.22;;;13.00;97.00;;;;;;5035144;28;20480;-67
2022/09/21 08:24:49;;;;;;;4.22;3.00;;;13.00;97.00;;;;;;5035234;28;20033;-67
2022/09/21 08:27:15;;;;;;;6.28;3.50;;;13.00;97.20;;;;;;5041288;28;20051;-67
2022/09/21 08:29:42;;;;;;;3.30;2.95;;;13.10;97.30;;;;;;5040824;28;20653;-67
2022/09/21 08:32:07;;;;;;;5.78;3.15;;;13.10;97.30;;;;;;5037851;28;20044;-67
2022/09/21 08:34:33;;;;;;;5.78;3.40;;;13.20;97.40;;;;;;5038564;28;20036;-66
2022/09/21 08:36:59;;;;;;;5.75;3.50;;;13.30;97.40;;;;;;5035033;28;20029;-67
2022/09/21 08:39:25;;;;;;;6.32;3.30;;;13.40;97.40;;;;;;5036276;28;20064;-67
2022/09/21 08:42:24;;;;;;;5.97;4.18;;;13.40;97.40;;;;;;5032954;28;20025;-67
2022/09/21 08:45:08;;;;;;;4.65;3.50;;;13.50;97.50;;;;;;5037540;28;20083;-67
2022/09/21 08:47:42;;;;;;;6.70;3.47;;;13.60;97.40;;;;;;5034781;28;20111;-67
2022/09/21 08:50:38;;;;;;;3.58;3.15;;;13.80;97.40;;;;;;5038296;28;20049;-67
2022/09/21 08:53:44;;;;;;;4.38;3.28;;;13.90;97.40;;;;;;5037717;28;20061;-67
2022/09/21 08:56:12;;;;;;;9.60;3.40;;;14.10;96.90;;;;;;5038289;28;20052;-66
2022/09/21 08:58:41;;;;;;;5.10;3.15;;;14.40;97.00;;;;;;5036175;28;20033;-67
2022/09/21 09:01:19;;;;;;;4.25;2.90;;;14.70;96.40;;;;;;5034563;28;20033;-67
2022/09/21 09:04:15;;;;;;;7.00;3.47;;;15.10;95.80;;;;;;5041906;28;20580;-67
2022/09/21 09:06:44;;;;;;;4.15;2.90;;;15.30;95.00;;;;;;5039007;28;20031;-67
2022/09/21 09:09:16;;;;;;;3.60;2.30;;;15.60;94.00;;;;;;5037844;28;20033;-67
2022/09/21 09:12:00;;;;;;;5.25;2.42;;;15.90;93.20;;;;;;5037992;28;20044;-67
2022/09/21 09:15:04;;;;;;;2.97;2.50;;;16.00;93.10;;;;;;5031239;28;20044;-66
2022/09/21 09:17:41;;;;;;;2.90;2.13;;;15.80;93.40;;;;;;5034931;28;20108;-67
2022/09/21 09:20:16;;;;;;;2.58;2.38;;;15.70;93.50;;;;;;5032027;28;20025;-66
2022/09/21 09:22:51;;;;;;;3.40;2.60;;;15.60;94.00;;;;;;5041137;28;20766;-67
2022/09/21 09:25:20;;;;;;;3.90;2.78;;;15.50;94.10;;;;;;5038894;28;20452;-67
2022/09/21 09:27:52;;;;;;;6.38;2.95;;;15.50;94.40;;;;;;5036758;28;20428;-67
2022/09/21 09:30:24;;;;;;;3.20;2.30;;;15.50;94.60;;;;;;5037327;28;20700;-67
2022/09/21 09:33:06;;;;;;;8.23;3.35;;;15.50;94.60;;;;;;5036215;28;20378;-66
2022/09/21 09:35:46;;;;;;;4.05;2.70;;;15.60;94.70;;;;;;5034465;28;20074;-68
2022/09/21 09:38:41;;;;;;;2.35;1.95;;;15.60;94.50;;;;;;5032756;28;20049;-68
2022/09/21 09:41:22;;;;;;;1.83;1.63;;;15.60;94.20;;;;;;5038640;28;20086;-68
2022/09/21 09:44:22;;;;;;;3.95;2.03;;;15.60;93.80;;;;;;5044915;28;20037;-68
2022/09/21 09:47:25;;;;;;;2.65;1.77;;;15.60;93.90;;;;;;5040520;28;20199;-68
2022/09/21 09:50:09;;;;;;;2.00;1.80;;;15.70;94.10;;;;;;5039982;28;20036;-68
2022/09/21 09:52:36;;;;;;;2.25;2.05;;;15.80;93.70;;;;;;5038585;28;20025;-69
2022/09/21 09:55:14;;;;;;;3.33;2.13;;;16.00;94.20;;;;;;5034822;28;20589;-68
2022/09/21 09:57:40;;;;;;;7.38;2.55;;;16.00;93.60;;;;;;5037297;28;20033;-68
2022/09/21 10:00:11;;;;;;;4.00;2.08;;;16.10;93.40;;;;;;5041890;28;20041;-68
2022/09/21 10:02:51;;;;;;;3.97;1.77;;;16.20;93.10;;;;;;5044312;28;20032;-68
2022/09/21 10:05:34;;;;;;;2.63;1.75;;;16.10;92.40;;;;;;5042349;28;20577;-68
2022/09/21 10:08:00;;;;;;;2.22;1.38;;;16.10;92.40;;;;;;5039651;28;20078;-69
2022/09/21 10:10:35;;;;;;;1.58;1.42;;;16.10;92.60;;;;;;5037417;28;20025;-68
2022/09/21 10:13:12;;;;;;;1.77;1.40;;;16.00;92.70;;;;;;5035655;28;20044;-68
2022/09/21 10:16:01;;;;;;;2.00;1.50;;;16.10;93.00;;;;;;5041016;28;20393;-68
2022/09/21 10:18:45;;;;;;;1.63;1.50;;;16.20;93.10;;;;;;5036674;28;20037;-68
2022/09/21 10:21:21;;;;;;;2.10;1.50;;;16.30;93.00;;;;;;5042615;28;20400;-68
2022/09/21 10:23:58;;;;;;;2.53;1.63;;;16.40;92.50;;;;;;5042836;28;21409;-68
2022/09/21 10:26:43;;;;;;;2.03;1.55;;;16.50;92.10;;;;;;5042866;28;20330;-68
2022/09/21 10:29:20;;;;;;;3.47;1.80;;;16.40;92.10;;;;;;5037593;28;20079;-69
2022/09/21 10:32:18;;;;;;;1.67;1.23;;;16.40;92.30;;;;;;5037455;28;20021;-68
2022/09/21 10:35:06;;;;;;;1.33;1.02;;;16.30;92.10;;;;;;5036622;28;20036;-69
2022/09/21 10:37:36;;;;;;;2.20;1.23;;;16.30;91.90;;;;;;5040616;28;20029;-69
2022/09/21 10:40:03;;;;;;;1.45;0.77;;;16.30;92.20;;;;;;5042283;28;20481;-68
2022/09/21 10:42:40;;;;;;;2.30;1.17;;;16.30;92.30;;;;;;5041539;28;20033;-69
2022/09/21 10:45:18;;;;;;;1.60;1.20;;;16.40;92.50;;;;;;5038316;28;20034;-69
2022/09/21 10:48:23;;;;;;;1.95;1.50;;;16.50;92.90;;;;;;5038044;28;20076;-69
2022/09/21 10:50:50;;;;;;;2.15;1.42;;;16.80;92.80;;;;;;5038166;28;20525;-69
2022/09/21 10:53:29;;;;;;;1.55;1.30;;;17.00;92.00;;;;;;5036903;28;20144;-69
2022/09/21 10:56:00;;;;;;;2.90;1.50;;;17.20;91.20;;;;;;5036169;28;20043;-68
2022/09/21 10:58:27;;;;;;;1.23;1.13;;;17.50;90.10;;;;;;5035953;28;20111;-69
2022/09/21 11:00:54;;;;;;;5.13;1.02;;;17.80;87.60;;;;;;5041753;28;20219;-67
2022/09/21 11:03:32;;;;;;;2.55;0.95;;;18.00;86.20;;;;;;5042605;28;20764;-67
2022/09/21 11:06:17;;;;;;;1.10;1.00;;;18.10;84.10;;;;;;5038361;28;20037;-68
2022/09/21 11:09:12;;;;;;;1.73;0.95;;;18.10;83.80;;;;;;5037726;28;20025;-68
2022/09/21 11:11:59;;;;;;;2.85;0.90;;;18.00;85.00;;;;;;5036997;28;20082;-68
2022/09/21 11:14:43;;;;;;;1.98;1.00;;;17.90;85.10;;;;;;5039911;28;20120;-68
2022/09/21 11:17:24;;;;;;;1.00;0.70;;;17.90;83.10;;;;;;5043312;28;20587;-67
2022/09/21 11:20:05;;;;;;;1.00;0.90;;;17.90;81.70;;;;;;5038817;28;20108;-68
2022/09/21 11:23:01;;;;;;;0.93;0.63;;;18.10;81.50;;;;;;5036798;28;20677;-67
2022/09/21 11:25:41;;;;;;;2.72;0.80;;;18.10;77.70;;;;;;5036745;28;20025;-68
2022/09/21 11:28:28;;;;;;;1.55;0.60;;;18.10;79.90;;;;;;5035508;28;20025;-68
2022/09/21 11:31:05;;;;;;;1.10;0.75;;;18.10;82.90;;;;;;5034088;28;20375;-72
2022/09/21 11:33:43;;;;;;;0.98;0.63;;;18.20;80.30;;;;;;5035844;28;20036;-70
2022/09/21 11:36:22;;;;;;;1.02;0.93;;;18.00;80.20;;;;;;5041047;28;20826;-69
2022/09/21 11:39:04;;;;;;;0.85;0.50;;;17.90;81.30;;;;;;5041427;28;20044;-69
2022/09/21 11:41:57;;;;;;;0.85;0.60;;;17.90;82.30;;;;;;5040054;28;20029;-69
2022/09/21 11:44:57;;;;;;;2.40;1.08;;;17.80;82.40;;;;;;5037692;28;20032;-67
2022/09/21 11:47:38;;;;;;;1.10;0.70;;;18.00;80.40;;;;;;5036779;28;20037;-69
2022/09/21 11:50:29;;;;;;;0.75;0.70;;;18.00;77.50;;;;;;5032759;28;20036;-69
2022/09/21 11:53:39;;;;;;;1.63;0.75;;;18.00;78.30;;;;;;5039477;28;20029;-68
2022/09/21 11:56:35;;;;;;;2.67;0.75;;;18.00;78.80;;;;;;5039468;28;20481;-69
2022/09/21 11:59:10;;;;;;;1.60;0.60;;;18.00;78.80;;;;;;5038498;28;20043;-68
2022/09/21 12:01:57;;;;;;;1.30;1.15;;;18.00;78.40;;;;;;5039936;28;20106;-70
2022/09/21 12:04:40;;;;;;;0.80;0.80;;;18.10;78.30;;;;;;5037092;28;20087;-69
2022/09/21 12:07:12;;;;;;;0.60;0.60;;;18.20;78.80;;;;;;5049501;28;20493;-67
2022/09/21 12:09:43;;;;;;;0.60;0.60;;;18.30;78.90;;;;;;5034819;28;20052;-68
2022/09/21 12:12:33;;;;;;;1.48;0.77;;;18.30;78.20;;;;;;5040394;28;20037;-70
2022/09/21 12:15:08;;;;;;;1.83;0.50;;;18.50;78.00;;;;;;5039313;28;20033;-69
2022/09/21 12:17:56;;;;;;;1.45;0.65;;;18.60;76.40;;;;;;5039010;28;20024;-69
2022/09/21 12:20:52;;;;;;;0.82;0.60;;;18.70;74.80;;;;;;5038736;28;20111;-69
2022/09/21 12:23:25;;;;;;;0.85;0.60;;;18.80;73.20;;;;;;5044850;28;20420;-69
2022/09/21 12:25:56;;;;;;;0.60;0.60;;;18.80;74.10;;;;;;5034442;28;20041;-67
2022/09/21 12:28:46;;;;;;;1.17;0.75;;;18.80;74.00;;;;;;5034718;28;20276;-69
2022/09/21 12:31:31;;;;;;;1.30;0.32;;;19.00;72.90;;;;;;5038202;28;20493;-70
2022/09/21 12:34:04;;;;;;;1.98;0.50;;;19.10;72.30;;;;;;5038283;28;20134;-70
2022/09/21 12:36:44;;;;;;;3.17;0.60;;;19.10;70.40;;;;;;5037619;28;20037;-67
2022/09/21 12:39:31;;;;;;;0.88;0.73;;;19.10;71.90;;;;;;5038652;28;20040;-70
2022/09/21 12:42:32;;;;;;;0.70;0.50;;;19.20;71.00;;;;;;5036492;28;20029;-68
2022/09/21 12:45:04;;;;;;;0.50;0.47;;;19.20;71.20;;;;;;5035356;28;20037;-69
2022/09/21 12:47:42;;;;;;;0.50;0.50;;;19.30;70.40;;;;;;5034898;28;20120;-70
2022/09/21 12:50:25;;;;;;;0.52;0.50;;;19.40;69.20;;;;;;5038997;28;20154;-70
2022/09/21 12:52:52;;;;;;;2.42;0.52;;;19.40;70.00;;;;;;5038064;28;20025;-67
2022/09/21 12:55:43;;;;;;;1.75;0.55;;;19.40;69.60;;;;;;5038158;28;20382;-70
2022/09/21 12:58:21;;;;;;;1.05;0.32;;;19.40;68.10;;;;;;5036346;28;20421;-68
2022/09/21 13:01:14;;;;;;;0.22;0.22;;;19.40;69.10;;;;;;5035946;28;20155;-68
2022/09/21 13:04:00;;;;;;;0.63;0.40;;;19.40;67.30;;;;;;5036703;28;20043;-69
2022/09/21 13:06:41;;;;;;;;;;;19.30;68.60;;;;;;5034930;28;20028;-69
2022/09/21 13:09:13;;;;;;;0.85;0.30;;;19.30;70.00;;;;;;5035661;28;19909;-69
2022/09/21 13:11:56;;;;;;;1.50;0.47;;;19.30;69.20;;;;;;5040320;28;20802;-69
2022/09/21 13:14:35;;;;;;;0.50;0.50;;;19.30;69.40;;;;;;5039896;28;20124;-69
2022/09/21 13:17:03;;;;;;;0.30;0.30;;;19.30;68.00;;;;;;5040407;28;20037;-68
2022/09/21 13:19:34;;;;;;;0.65;0.50;;;19.30;66.30;;;;;;5041210;28;20028;-68
2022/09/21 13:22:19;;;;;;;0.73;0.57;;;19.30;66.50;;;;;;5036173;28;20042;-69
2022/09/21 13:25:01;;;;;;;2.03;0.40;;;19.20;67.50;;;;;;5038417;28;20025;-69
2022/09/21 13:28:08;;;;;;;0.80;0.50;;;19.30;67.80;;;;;;5042051;28;20075;-68
2022/09/21 13:30:39;;;;;;;0.70;0.45;;;19.20;67.60;;;;;;5038254;28;20040;-69